»·PEaware :: WAT169 KSBA-KJAC

WAT169 :: KSBA-KJAC

FLIGHT INFORMATION

Flight Status: Arrived
Operator:
Walker Air Transport
More flights by this operator :: More flights under this callsign
Pilot: Marty P. (27464)
Aircraft: BOEING 737-800
(B738)
More flights by this aircraft type
Origin: KSBA Santa Barbara Mun
United States
Destination: KJAC Jackson Hole
United States
More flights between these airports :: More routes between these airports
Route: FLOUT5 GVO AVE FRA MVA KOHEN LEIDY DNW
File this flight plan on PilotEdge
Remarks:
Altitude:
(Current/Filed)
39,000ft
Speed:
(Current/Filed)
480kts
Departed: 20-Feb-21 12:06 PM
Arrived: 20-Feb-21 03:03 PM
Distance/Time
Traveled:
694nm/2:57
Distance/Time
To Go:
Arrived

Flight Plot

Page will automatically refresh every two minutes.

Flight plan parsing failed; only flown route is shown


Map Options




Map Legend


Flown Route
Filed Route
Departure Airport
Arrival Airport
Navaid (VOR, NDB)
Fix

Horizontal Profiles

Position Reports

Time Latitude Longitude Heading Altitude Ground
Speed
20-Feb-21 11:35 34.424591 -119.837072 125 18ft 0kts
20-Feb-21 11:36 34.424591 -119.837072 124 18ft 0kts
20-Feb-21 11:37 34.424591 -119.837072 124 18ft 0kts
20-Feb-21 11:38 34.424591 -119.837072 125 18ft 0kts
20-Feb-21 11:39 34.424591 -119.837072 125 18ft 0kts
20-Feb-21 11:40 34.424591 -119.837072 124 18ft 0kts
20-Feb-21 11:42 34.424591 -119.837072 124 18ft 0kts
20-Feb-21 11:43 34.424591 -119.837072 125 18ft 0kts
20-Feb-21 11:44 34.424591 -119.837072 125 18ft 0kts
20-Feb-21 11:45 34.424591 -119.837072 125 17ft 0kts
20-Feb-21 11:46 34.424591 -119.837072 125 17ft 0kts
20-Feb-21 11:47 34.424591 -119.837072 125 17ft 0kts
20-Feb-21 11:48 34.424591 -119.837072 125 17ft 0kts
20-Feb-21 11:49 34.424591 -119.837072 124 17ft 0kts
20-Feb-21 11:50 34.424591 -119.837072 124 17ft 0kts
20-Feb-21 11:51 34.424591 -119.837072 124 17ft 0kts
20-Feb-21 11:52 34.424591 -119.837072 125 17ft 0kts
20-Feb-21 11:53 34.424591 -119.837072 125 17ft 0kts
20-Feb-21 11:54 34.424591 -119.837072 124 17ft 0kts
20-Feb-21 11:55 34.424621 -119.837496 52 18ft 2kts
20-Feb-21 11:56 34.424275 -119.837613 344 19ft 0kts
20-Feb-21 11:57 34.424275 -119.837613 344 19ft 0kts
20-Feb-21 11:58 34.424278 -119.837614 344 19ft 0kts
20-Feb-21 11:59 34.425807 -119.838071 344 19ft 11kts
20-Feb-21 12:00 34.426737 -119.836679 89 17ft 7kts
20-Feb-21 12:01 34.426820 -119.834792 28 17ft 1kts
20-Feb-21 12:02 34.427037 -119.834795 359 17ft 0kts
20-Feb-21 12:03 34.427037 -119.834795 359 17ft 0kts
20-Feb-21 12:04 34.427037 -119.834795 359 17ft 0kts
20-Feb-21 12:04 34.427914 -119.834957 273 17ft 3kts
20-Feb-21 12:05 34.426178 -119.865243 267 1062ft 148kts
20-Feb-21 12:07 34.382237 -119.902251 180 2965ft 256kts
20-Feb-21 12:08 34.307995 -119.919453 213 5828ft 279kts
20-Feb-21 12:08 34.250941 -119.957957 222 7991ft 291kts
20-Feb-21 12:09 34.260280 -120.010644 350 11152ft 204kts
20-Feb-21 12:11 34.333261 -120.002467 340 14404ft 230kts
20-Feb-21 12:11 34.383441 -120.022349 332 16767ft 233kts
20-Feb-21 12:12 34.448864 -120.034798 319 18841ft 249kts
20-Feb-21 12:13 34.527361 -120.062889 344 19347ft 345kts
20-Feb-21 12:14 34.627214 -120.075087 351 21237ft 376kts
20-Feb-21 12:15 34.734679 -120.069130 354 23221ft 395kts
20-Feb-21 12:16 34.846504 -120.059269 354 25044ft 409kts
20-Feb-21 12:17 34.961655 -120.048062 353 26705ft 420kts
20-Feb-21 12:18 35.077847 -120.036394 352 28638ft 419kts
20-Feb-21 12:19 35.194317 -120.024643 351 30417ft 419kts
20-Feb-21 12:20 35.309755 -120.012969 350 32042ft 417kts
20-Feb-21 12:21 35.425273 -120.001271 349 33477ft 416kts
20-Feb-21 12:22 35.540278 -119.989594 349 34720ft 417kts
20-Feb-21 12:23 35.656477 -119.981416 1 35802ft 438kts
20-Feb-21 12:24 35.773063 -119.946853 357 36830ft 430kts
20-Feb-21 12:25 35.889558 -119.916092 357 37742ft 429kts
20-Feb-21 12:26 36.006516 -119.885580 357 38524ft 430kts
20-Feb-21 12:27 36.117333 -119.856697 358 39159ft 431kts
20-Feb-21 12:28 36.117333 -119.856697 358 39159ft 431kts
20-Feb-21 12:53 34.424591 -119.837072 124 18ft 0kts
20-Feb-21 12:54 34.424591 -119.837072 124 17ft 0kts
20-Feb-21 12:55 34.424591 -119.837072 124 17ft 0kts
20-Feb-21 12:56 34.424591 -119.837072 124 17ft 0kts
20-Feb-21 12:57 34.424591 -119.837072 124 17ft 0kts
20-Feb-21 12:58 34.424591 -119.837072 124 17ft 0kts
20-Feb-21 12:59 34.424591 -119.837072 124 17ft 0kts
20-Feb-21 13:00 34.424591 -119.837072 124 17ft 0kts
20-Feb-21 13:01 34.424591 -119.837072 124 17ft 0kts
20-Feb-21 13:02 34.424591 -119.837072 124 17ft 0kts
20-Feb-21 13:03 34.424591 -119.837072 124 17ft 0kts
20-Feb-21 13:04 34.424591 -119.837072 124 17ft 0kts
20-Feb-21 13:05 34.424591 -119.837072 124 17ft 0kts
20-Feb-21 13:06 34.424591 -119.837072 124 17ft 0kts
20-Feb-21 13:07 34.424591 -119.837072 124 17ft 0kts
20-Feb-21 13:08 34.424576 -119.837557 38 18ft 2kts
20-Feb-21 13:09 34.424275 -119.837613 344 19ft 0kts
20-Feb-21 13:10 34.424275 -119.837613 344 19ft 0kts
20-Feb-21 13:11 34.424275 -119.837613 344 19ft 0kts
20-Feb-21 13:12 34.425634 -119.838029 345 19ft 11kts
20-Feb-21 13:13 34.426755 -119.835722 88 17ft 12kts
20-Feb-21 13:14 34.427055 -119.834643 2 17ft 0kts
20-Feb-21 13:15 34.427843 -119.839134 268 20ft 88kts
20-Feb-21 13:16 34.409873 -119.882376 189 1814ft 200kts
20-Feb-21 13:17 34.340246 -119.873458 194 4688ft 278kts
20-Feb-21 13:18 34.287621 -119.930900 271 8018ft 256kts
20-Feb-21 13:19 34.320973 -119.994016 323 10838ft 227kts
20-Feb-21 13:20 34.391125 -120.029413 334 12559ft 308kts
20-Feb-21 13:21 34.473703 -120.065767 334 15586ft 326kts
20-Feb-21 13:22 34.564219 -120.087155 354 18264ft 356kts
20-Feb-21 13:23 34.665552 -120.077816 355 20559ft 375kts
20-Feb-21 13:24 34.771711 -120.067202 355 22628ft 390kts
20-Feb-21 13:25 34.881335 -120.056231 354 24448ft 404kts
20-Feb-21 13:26 34.994757 -120.044841 353 26182ft 414kts
20-Feb-21 13:27 35.111496 -120.033111 353 27658ft 427kts
20-Feb-21 13:28 35.229928 -120.021172 352 29050ft 437kts
20-Feb-21 13:29 35.352367 -120.008797 352 30274ft 448kts
20-Feb-21 13:30 35.477705 -119.996060 351 31460ft 455kts
20-Feb-21 13:31 35.602746 -119.983258 350 32853ft 454kts
20-Feb-21 13:32 35.729096 -119.956569 356 34049ft 468kts
20-Feb-21 13:33 35.855816 -119.924385 357 35204ft 467kts
20-Feb-21 13:34 35.981597 -119.891895 357 36253ft 466kts
20-Feb-21 13:35 36.108785 -119.858902 358 37082ft 468kts
20-Feb-21 13:36 36.236149 -119.825637 358 37868ft 468kts
20-Feb-21 13:37 36.362256 -119.792631 359 38555ft 468kts
20-Feb-21 13:38 36.487520 -119.759692 359 39367ft 464kts
20-Feb-21 13:39 36.616053 -119.725922 0 39353ft 477kts
20-Feb-21 13:40 36.744654 -119.691856 0 39347ft 480kts
20-Feb-21 13:41 36.874810 -119.657246 0 39346ft 477kts
20-Feb-21 13:42 37.004030 -119.622823 1 39347ft 476kts
20-Feb-21 13:43 37.126808 -119.558565 25 39345ft 506kts
20-Feb-21 13:44 37.238495 -119.452515 30 39314ft 512kts
20-Feb-21 13:45 37.347819 -119.340349 31 39300ft 510kts
20-Feb-21 13:46 37.453612 -119.229903 31 39302ft 512kts
20-Feb-21 13:47 37.563152 -119.114571 32 39302ft 513kts
20-Feb-21 13:48 37.672015 -118.999346 32 39292ft 512kts
20-Feb-21 13:49 37.781411 -118.883079 32 39253ft 514kts
20-Feb-21 13:50 37.890413 -118.766745 32 39245ft 513kts
20-Feb-21 13:51 37.999855 -118.649479 32 39256ft 514kts
20-Feb-21 13:52 38.107018 -118.534168 32 39256ft 506kts
20-Feb-21 13:53 38.214926 -118.417656 32 39252ft 511kts
20-Feb-21 13:54 38.323074 -118.300424 33 39264ft 511kts
20-Feb-21 13:55 38.431257 -118.182717 33 39274ft 511kts
20-Feb-21 13:56 38.539036 -118.064892 33 39273ft 509kts
20-Feb-21 13:57 38.639890 -117.936559 39 39246ft 517kts
20-Feb-21 13:58 38.739996 -117.805664 39 39218ft 515kts
20-Feb-21 13:59 38.840005 -117.674750 39 39219ft 513kts
20-Feb-21 14:00 38.939906 -117.543531 39 39225ft 513kts
20-Feb-21 14:01 39.038313 -117.413740 39 39236ft 511kts
20-Feb-21 14:02 39.137343 -117.282679 40 39238ft 513kts
20-Feb-21 14:03 39.236690 -117.150631 40 39237ft 513kts
20-Feb-21 14:04 39.334722 -117.019698 40 39225ft 513kts
20-Feb-21 14:05 39.433979 -116.886530 40 39205ft 513kts
20-Feb-21 14:06 39.532663 -116.753549 40 39201ft 514kts
20-Feb-21 14:07 39.631395 -116.619917 41 39201ft 514kts
20-Feb-21 14:08 39.730254 -116.485520 41 39207ft 515kts
20-Feb-21 14:09 39.829002 -116.350677 41 39210ft 515kts
20-Feb-21 14:10 39.926610 -116.216962 42 39210ft 515kts
20-Feb-21 14:11 40.025103 -116.081321 42 39198ft 515kts
20-Feb-21 14:12 40.123236 -115.945527 42 39172ft 515kts
20-Feb-21 14:14 40.221091 -115.809498 42 39167ft 514kts
20-Feb-21 14:15 40.318712 -115.673188 42 39173ft 515kts
20-Feb-21 14:16 40.416598 -115.535874 42 39173ft 515kts
20-Feb-21 14:17 40.513663 -115.399094 42 39173ft 516kts
20-Feb-21 14:18 40.611507 -115.260708 43 39174ft 518kts
20-Feb-21 14:19 40.709115 -115.121985 43 39165ft 519kts
20-Feb-21 14:20 40.806717 -114.982548 43 39158ft 520kts
20-Feb-21 14:21 40.904445 -114.842270 43 39155ft 520kts
20-Feb-21 14:22 41.002397 -114.700996 43 39155ft 521kts
20-Feb-21 14:23 41.100022 -114.559527 43 39155ft 520kts
20-Feb-21 14:24 41.197171 -114.418073 43 39100ft 520kts
20-Feb-21 14:25 41.292008 -114.272678 48 39101ft 523kts
20-Feb-21 14:26 41.383800 -114.123828 46 39100ft 521kts
20-Feb-21 14:27 41.477138 -113.976328 46 39099ft 522kts
20-Feb-21 14:28 41.571198 -113.828008 45 39099ft 524kts
20-Feb-21 14:29 41.664601 -113.680222 45 39105ft 521kts
20-Feb-21 14:30 41.757588 -113.532454 45 39109ft 523kts
20-Feb-21 14:31 41.851220 -113.382923 45 39109ft 525kts
20-Feb-21 14:32 41.945032 -113.232541 46 39109ft 527kts
20-Feb-21 14:33 42.038765 -113.081448 46 39099ft 522kts
20-Feb-21 14:33 42.115526 -112.957052 46 39094ft 520kts
20-Feb-21 14:35 42.223532 -112.781160 46 39072ft 525kts
20-Feb-21 14:35 42.300792 -112.654675 46 39072ft 525kts
20-Feb-21 14:37 42.409447 -112.475862 47 37254ft 521kts
20-Feb-21 14:38 42.500568 -112.325126 47 35382ft 518kts
20-Feb-21 14:38 42.575461 -112.200869 48 34157ft 524kts
20-Feb-21 14:39 42.667211 -112.047694 48 32856ft 519kts
20-Feb-21 14:40 42.758858 -111.893886 48 31853ft 527kts
20-Feb-21 14:41 42.850159 -111.739801 48 30848ft 521kts
20-Feb-21 14:43 42.955517 -111.561034 48 29680ft 518kts
20-Feb-21 14:43 43.030045 -111.433922 48 29033ft 515kts
20-Feb-21 14:44 43.119228 -111.281179 49 29032ft 520kts
20-Feb-21 14:45 43.209028 -111.126588 49 29018ft 519kts
20-Feb-21 14:46 43.299013 -110.970782 49 28388ft 525kts
20-Feb-21 14:47 43.384938 -110.821116 50 24908ft 480kts
20-Feb-21 14:48 43.465926 -110.679447 50 21356ft 451kts
20-Feb-21 14:49 43.538301 -110.550316 51 17857ft 407kts
20-Feb-21 14:50 43.604498 -110.429935 50 14022ft 385kts
20-Feb-21 14:51 43.665590 -110.325257 35 12918ft 313kts
20-Feb-21 14:52 43.738345 -110.303047 345 12982ft 252kts
20-Feb-21 14:53 43.803403 -110.335657 315 12942ft 246kts
20-Feb-21 14:54 43.822982 -110.419705 263 12913ft 231kts
20-Feb-21 14:55 43.816880 -110.496564 264 11413ft 201kts
20-Feb-21 14:56 43.802158 -110.567724 245 10370ft 193kts
20-Feb-21 14:57 43.775467 -110.629036 224 9539ft 194kts
20-Feb-21 14:58 43.735604 -110.672510 217 8727ft 168kts
20-Feb-21 14:59 43.691213 -110.696656 201 8049ft 167kts
20-Feb-21 15:00 43.649603 -110.717064 199 7191ft 156kts
20-Feb-21 15:01 43.609988 -110.736481 198 6438ft 117kts
20-Feb-21 15:02 43.599830 -110.741223 160 6418ft 7kts
20-Feb-21 15:03 43.600076 -110.739705 22 6421ft 6kts
20-Feb-21 15:04 43.603232 -110.738155 58 6428ft 2kts
20-Feb-21 15:05 43.603098 -110.737258 108 6429ft 0kts
20-Feb-21 15:06 43.603098 -110.737258 108 6429ft 0kts
20-Feb-21 15:07 43.603098 -110.737258 108 6429ft 0kts

Navigation Log

Ident Type
Flight plan parsing failed, navigation log unavailable